createdAt,value
2018-02-11T00:02:17.112Z,29.97
2018-02-11T00:04:43.106Z,31.37
2018-02-11T00:07:09.120Z,30.37
2018-02-11T00:09:35.188Z,28.30
2018-02-11T00:12:01.185Z,30.33
2018-02-11T00:14:27.556Z,31.93
2018-02-11T00:16:53.562Z,22.63
2018-02-11T00:19:19.633Z,28.93
2018-02-11T00:21:45.662Z,27.47
2018-02-11T00:24:11.601Z,26.90
2018-02-11T00:26:37.671Z,27.97
2018-02-11T00:29:03.638Z,25.20
2018-02-11T00:31:30.026Z,26.17
2018-02-11T00:33:56.069Z,32.20
2018-02-11T00:36:22.078Z,33.30
2018-02-11T00:38:48.096Z,24.03
2018-02-11T00:41:14.100Z,27.17
2018-02-11T00:43:40.444Z,22.40
2018-02-11T00:46:06.432Z,32.00
2018-02-11T00:48:32.413Z,23.40
2018-02-11T00:50:58.429Z,24.33
2018-02-11T00:53:24.423Z,31.83
2018-02-11T00:55:50.453Z,25.97
2018-02-11T00:58:16.465Z,24.67
2018-02-11T01:00:42.525Z,27.27
2018-02-11T01:03:08.464Z,21.80
2018-02-11T01:05:34.881Z,23.93
2018-02-11T01:08:00.885Z,23.13
2018-02-11T01:10:26.826Z,26.60
2018-02-11T01:12:52.903Z,25.27
2018-02-11T01:15:18.945Z,27.00
2018-02-11T01:17:45.008Z,33.50
2018-02-11T01:20:10.981Z,21.53
2018-02-11T01:22:37.287Z,24.20
2018-02-11T01:25:03.272Z,27.70
2018-02-11T01:27:29.297Z,26.57
2018-02-11T01:29:55.352Z,26.90
2018-02-11T01:32:21.460Z,29.90
2018-02-11T01:34:47.816Z,25.30
2018-02-11T01:37:13.841Z,24.97
2018-02-11T01:39:39.830Z,29.80
2018-02-11T01:42:05.854Z,28.30
2018-02-11T01:44:31.877Z,28.17
2018-02-11T01:46:58.235Z,29.30
2018-02-11T01:49:24.228Z,27.87
2018-02-11T01:51:50.257Z,30.40
2018-02-11T01:54:16.300Z,29.20
2018-02-11T01:56:42.349Z,33.67
2018-02-11T01:59:08.325Z,25.50
2018-02-11T02:01:34.416Z,25.90
2018-02-11T02:04:00.401Z,25.73
2018-02-11T02:06:26.872Z,28.20
2018-02-11T02:08:52.907Z,30.90
2018-02-11T02:11:18.893Z,29.77
2018-02-11T02:13:44.929Z,24.53
2018-02-11T02:16:10.941Z,26.80
2018-02-11T02:18:36.953Z,25.77
2018-02-11T02:21:02.966Z,25.37
2018-02-11T02:23:29.345Z,29.87
2018-02-11T02:25:55.380Z,28.07
2018-02-11T02:28:21.392Z,29.03
2018-02-11T02:30:47.504Z,25.03
2018-02-11T02:33:13.437Z,25.30
2018-02-11T02:35:39.884Z,31.80
2018-02-11T02:38:05.856Z,30.10
2018-02-11T02:40:31.853Z,26.70
2018-02-11T02:42:57.865Z,27.37
2018-02-11T02:45:23.880Z,25.97
2018-02-11T02:47:50.273Z,27.30
2018-02-11T02:50:16.325Z,28.90
2018-02-11T02:52:42.348Z,29.10
2018-02-11T02:55:08.377Z,30.70
2018-02-11T02:57:34.449Z,25.80
2018-02-11T03:00:00.849Z,26.33
2018-02-11T03:02:26.863Z,27.93
2018-02-11T03:04:52.860Z,22.60
2018-02-11T03:07:18.881Z,23.90
2018-02-11T03:09:44.865Z,24.50
2018-02-11T03:12:11.261Z,31.07
2018-02-11T03:14:37.276Z,26.00
2018-02-11T03:17:03.276Z,30.10
2018-02-11T03:19:29.289Z,25.73
2018-02-11T03:21:55.326Z,27.00
2018-02-11T03:24:21.700Z,52.17
2018-02-11T03:26:47.702Z,27.30
2018-02-11T03:29:13.679Z,31.50
2018-02-11T03:31:39.628Z,30.20
2018-02-11T03:34:05.625Z,25.40
2018-02-11T03:36:32.029Z,28.23
2018-02-11T03:38:58.074Z,28.60
2018-02-11T03:41:24.152Z,27.13
2018-02-11T03:43:50.174Z,24.00
2018-02-11T03:46:16.150Z,23.33
2018-02-11T03:48:42.581Z,23.60
2018-02-11T03:51:08.576Z,29.23
2018-02-11T03:53:34.672Z,29.73
2018-02-11T03:56:00.708Z,28.77
2018-02-11T03:58:26.714Z,30.57
2018-02-11T04:00:53.068Z,22.77
2018-02-11T04:03:19.076Z,27.50
2018-02-11T04:05:45.072Z,29.63
2018-02-11T04:08:11.104Z,32.70
2018-02-11T04:10:37.129Z,30.07
2018-02-11T04:13:03.553Z,27.80
2018-02-11T04:15:29.566Z,26.17
2018-02-11T04:17:55.556Z,27.13
2018-02-11T04:20:21.557Z,32.50
2018-02-11T04:22:47.557Z,29.63
2018-02-11T04:25:13.557Z,31.70
2018-02-11T04:27:39.556Z,28.37
2018-02-11T04:30:05.584Z,31.07
2018-02-11T04:32:31.678Z,30.83
2018-02-11T04:34:57.673Z,32.47
2018-02-11T04:37:24.088Z,30.13
2018-02-11T04:39:50.093Z,29.23
2018-02-11T04:42:16.091Z,29.67
2018-02-11T04:44:42.120Z,27.30
2018-02-11T04:47:08.144Z,31.20
2018-02-11T04:49:34.170Z,32.63
2018-02-11T04:52:00.244Z,35.93
2018-02-11T04:54:26.649Z,28.93
2018-02-11T04:56:52.629Z,38.03
2018-02-11T04:59:18.628Z,30.30
2018-02-11T05:01:44.691Z,35.50
2018-02-11T05:04:10.758Z,28.53
2018-02-11T05:06:37.133Z,35.00
2018-02-11T05:09:03.101Z,28.00
2018-02-11T05:11:29.144Z,30.80
2018-02-11T05:13:55.149Z,30.07
2018-02-11T05:16:21.157Z,30.93
2018-02-11T05:18:47.175Z,29.63
2018-02-11T05:21:13.144Z,31.17
2018-02-11T05:23:39.501Z,28.00
2018-02-11T05:26:05.482Z,38.27
2018-02-11T05:28:31.484Z,35.47
2018-02-11T05:30:57.497Z,28.60
2018-02-11T05:33:23.478Z,28.00
2018-02-11T05:35:49.493Z,29.83
2018-02-11T05:38:15.533Z,30.27
2018-02-11T05:40:41.525Z,29.30
2018-02-11T05:43:07.540Z,28.23
2018-02-11T05:45:33.930Z,31.03
2018-02-11T05:48:00.048Z,32.33
2018-02-11T05:50:26.050Z,29.33
2018-02-11T05:52:52.048Z,31.57
2018-02-11T05:55:18.053Z,30.13
2018-02-11T05:57:44.052Z,24.10
2018-02-11T06:00:10.072Z,27.37
2018-02-11T06:02:36.518Z,32.83
2018-02-11T06:05:02.621Z,27.53
2018-02-11T06:07:28.605Z,30.50
2018-02-11T06:09:54.622Z,35.10
2018-02-11T06:12:20.678Z,33.07
2018-02-11T06:14:47.048Z,27.30
2018-02-11T06:17:13.054Z,32.43
2018-02-11T06:19:39.005Z,26.10
2018-02-11T06:22:05.016Z,29.13
2018-02-11T06:24:31.044Z,33.17
2018-02-11T06:26:57.044Z,25.27
2018-02-11T06:29:23.174Z,27.20
2018-02-11T06:31:49.644Z,27.87
2018-02-11T06:34:15.586Z,30.80
2018-02-11T06:36:41.563Z,29.27
2018-02-11T06:39:07.583Z,39.43
2018-02-11T06:41:33.580Z,27.43
2018-02-11T06:43:59.596Z,29.30
2018-02-11T06:46:25.593Z,22.93
2018-02-11T06:48:51.947Z,27.50
2018-02-11T06:51:17.999Z,29.20
2018-02-11T06:53:43.996Z,31.00
2018-02-11T06:56:10.049Z,26.00
2018-02-11T06:58:36.059Z,30.73
2018-02-11T07:01:02.108Z,29.30
2018-02-11T07:03:28.064Z,23.33
2018-02-11T07:05:54.082Z,27.17
2018-02-11T07:08:20.104Z,23.90
2018-02-11T07:10:46.168Z,25.60
2018-02-11T07:13:12.592Z,27.90
2018-02-11T07:15:38.672Z,30.83
2018-02-11T07:18:04.704Z,27.80
2018-02-11T07:20:30.767Z,29.60
2018-02-11T07:22:56.818Z,27.80
2018-02-11T07:25:22.822Z,29.07
2018-02-11T07:27:48.849Z,26.53
2018-02-11T07:30:14.884Z,25.00
2018-02-11T07:32:40.860Z,29.10
2018-02-11T07:35:07.224Z,29.70
2018-02-11T07:37:33.201Z,26.33
2018-02-11T07:39:59.338Z,25.03
2018-02-11T07:42:25.328Z,28.70
2018-02-11T07:44:51.373Z,25.77
2018-02-11T07:47:17.440Z,30.87
2018-02-11T07:49:43.461Z,27.17
2018-02-11T07:52:09.897Z,31.93
2018-02-11T07:54:35.901Z,29.10
2018-02-11T07:57:01.894Z,32.93
2018-02-11T07:59:27.920Z,32.40
2018-02-11T08:01:53.920Z,34.60
2018-02-11T08:04:19.944Z,31.57
2018-02-11T08:06:45.925Z,29.00
2018-02-11T08:09:11.917Z,38.50
2018-02-11T08:11:37.914Z,30.30
2018-02-11T08:14:04.328Z,26.40
2018-02-11T08:16:30.396Z,48.07
2018-02-11T08:18:56.343Z,50.33
2018-02-11T08:24:15.413Z,35.57
2018-02-11T08:26:41.429Z,36.60
2018-02-11T08:29:07.453Z,33.20
2018-02-11T08:31:33.493Z,41.17
2018-02-11T08:33:59.477Z,34.43
2018-02-11T08:36:25.913Z,30.20
2018-02-11T08:38:52.070Z,29.00
2018-02-11T08:41:18.125Z,28.77
2018-02-11T08:43:44.139Z,28.40
2018-02-11T08:46:10.180Z,27.77
2018-02-11T08:48:36.564Z,25.07
2018-02-11T08:51:02.594Z,27.57
2018-02-11T08:53:28.619Z,22.53
2018-02-11T08:55:54.664Z,22.43
2018-02-11T08:58:20.687Z,27.97
2018-02-11T09:00:46.727Z,24.40
2018-02-11T09:03:12.717Z,19.90
2018-02-11T09:05:39.121Z,20.30
2018-02-11T09:08:05.136Z,21.53
2018-02-11T09:10:31.193Z,23.43
2018-02-11T09:12:57.164Z,21.23
2018-02-11T09:15:23.226Z,14.67
2018-02-11T09:17:49.275Z,16.47
2018-02-11T09:20:15.265Z,16.57
2018-02-11T09:22:41.621Z,17.97
2018-02-11T09:25:07.638Z,17.60
2018-02-11T09:27:33.603Z,15.53
2018-02-11T09:29:59.612Z,16.00
2018-02-11T09:32:25.645Z,11.77
2018-02-11T09:34:51.793Z,11.60
2018-02-11T09:37:17.769Z,13.13
2018-02-11T09:39:44.147Z,13.60
2018-02-11T09:42:10.168Z,13.93
2018-02-11T09:44:36.200Z,10.67
2018-02-11T09:47:02.188Z,12.33
2018-02-11T09:49:28.189Z,9.77
2018-02-11T09:51:54.248Z,9.97
2018-02-11T09:54:20.307Z,12.70
2018-02-11T09:56:46.317Z,9.90
2018-02-11T09:59:12.345Z,8.80
2018-02-11T10:01:38.353Z,9.17
2018-02-11T10:04:04.859Z,10.03
2018-02-11T10:06:30.877Z,9.93
2018-02-11T10:08:56.903Z,12.20
2018-02-11T10:11:22.873Z,8.40
2018-02-11T10:13:48.873Z,9.77
2018-02-11T10:16:14.957Z,12.90
2018-02-11T10:18:40.941Z,9.47
2018-02-11T10:21:07.269Z,10.77
2018-02-11T10:23:33.280Z,11.90
2018-02-11T10:25:59.225Z,10.97
2018-02-11T10:28:25.246Z,10.70
2018-02-11T10:30:51.275Z,12.50
2018-02-11T10:33:17.299Z,10.37
2018-02-11T10:35:43.304Z,10.73
2018-02-11T10:38:09.733Z,9.53
2018-02-11T10:40:35.746Z,10.23
2018-02-11T10:43:01.756Z,9.20
2018-02-11T10:45:27.800Z,11.20
2018-02-11T10:47:53.845Z,11.83
2018-02-11T10:50:19.868Z,9.90
2018-02-11T10:52:45.794Z,11.77
2018-02-11T10:55:12.221Z,10.83
2018-02-11T10:57:39.069Z,11.50
2018-02-11T11:00:05.097Z,9.60
2018-02-11T11:02:31.129Z,9.47
2018-02-11T11:04:57.082Z,10.27
2018-02-11T11:07:23.129Z,13.33
2018-02-11T11:09:49.149Z,15.77
2018-02-11T11:12:15.518Z,13.00
2018-02-11T11:14:41.533Z,8.80
2018-02-11T11:17:07.536Z,29.70
2018-02-11T11:19:33.501Z,15.97
2018-02-11T11:21:59.501Z,14.10
2018-02-11T11:24:25.861Z,18.63
2018-02-11T11:26:51.889Z,12.43
2018-02-11T11:29:18.241Z,7.00
2018-02-11T11:31:44.257Z,13.17
2018-02-11T11:34:10.225Z,10.83
2018-02-11T11:36:36.296Z,11.53
2018-02-11T11:39:02.326Z,8.47
2018-02-11T11:41:28.328Z,8.80
2018-02-11T11:43:54.335Z,8.50
2018-02-11T11:46:20.692Z,6.60
2018-02-11T11:48:46.748Z,6.17
2018-02-11T11:51:12.721Z,8.43
2018-02-11T11:53:38.756Z,8.07
2018-02-11T11:56:04.737Z,7.40
2018-02-11T11:58:30.761Z,9.03
2018-02-11T12:00:56.912Z,7.63
2018-02-11T12:03:22.913Z,8.60
2018-02-11T12:05:48.961Z,8.27
2018-02-11T12:08:15.309Z,9.40
2018-02-11T12:10:41.303Z,8.83
2018-02-11T12:13:07.301Z,8.47
2018-02-11T12:15:33.314Z,9.60
2018-02-11T12:17:59.337Z,9.60
2018-02-11T12:20:25.385Z,8.10
2018-02-11T12:22:51.385Z,9.60
2018-02-11T12:25:17.737Z,14.00
2018-02-11T12:27:43.734Z,11.77
2018-02-11T12:30:09.733Z,11.80
2018-02-11T12:32:35.741Z,11.67
2018-02-11T12:35:01.737Z,11.33
2018-02-11T12:37:27.723Z,9.07
2018-02-11T12:39:53.760Z,9.93
2018-02-11T12:42:19.762Z,12.27
2018-02-11T12:44:46.114Z,9.17
2018-02-11T12:47:12.118Z,11.80
2018-02-11T12:49:38.163Z,10.10
2018-02-11T12:52:04.231Z,11.87
2018-02-11T12:54:30.269Z,13.53
2018-02-11T12:56:56.633Z,11.77
2018-02-11T12:59:22.645Z,11.17
2018-02-11T13:01:48.660Z,13.33
2018-02-11T13:04:14.700Z,11.47
2018-02-11T13:06:40.660Z,9.83
2018-02-11T13:09:06.689Z,13.07
2018-02-11T13:11:32.684Z,9.83
2018-02-11T13:13:58.981Z,11.67
2018-02-11T13:16:24.980Z,11.53
2018-02-11T13:18:50.997Z,10.70
2018-02-11T13:21:17.052Z,10.23
2018-02-11T13:23:43.073Z,10.93
2018-02-11T13:26:09.262Z,10.30
2018-02-11T13:28:35.273Z,11.60
2018-02-11T13:31:01.596Z,11.43
2018-02-11T13:33:27.681Z,14.03
2018-02-11T13:35:53.696Z,15.60
2018-02-11T13:38:19.645Z,13.20
2018-02-11T13:40:45.657Z,14.53
2018-02-11T13:43:11.711Z,14.33
2018-02-11T13:45:37.785Z,13.80
2018-02-11T13:48:03.798Z,12.10
2018-02-11T13:50:29.796Z,12.27
2018-02-11T13:52:56.147Z,12.80
2018-02-11T13:55:22.245Z,14.93
2018-02-11T13:57:48.273Z,14.10
2018-02-11T14:00:14.345Z,17.27
2018-02-11T14:02:40.365Z,15.27
2018-02-11T14:05:06.381Z,14.60
2018-02-11T14:07:32.428Z,18.37
2018-02-11T14:09:58.765Z,14.97
2018-02-11T14:12:24.784Z,15.23
2018-02-11T14:14:50.828Z,16.73
2018-02-11T14:17:16.889Z,13.07
2018-02-11T14:19:42.890Z,14.13
2018-02-11T14:22:08.962Z,15.43
2018-02-11T14:24:34.995Z,16.70
2018-02-11T14:27:01.437Z,14.60
2018-02-11T14:29:27.603Z,12.60
2018-02-11T14:31:53.588Z,11.67
2018-02-11T14:34:19.669Z,16.00
2018-02-11T14:36:45.692Z,13.07
2018-02-11T14:39:11.795Z,13.77
2018-02-11T14:41:37.806Z,16.30
2018-02-11T14:44:03.822Z,16.47
2018-02-11T14:46:29.813Z,13.10
2018-02-11T14:48:56.253Z,12.57
2018-02-11T14:51:22.249Z,21.20
2018-02-11T14:53:48.257Z,14.67
2018-02-11T14:56:14.305Z,14.67
2018-02-11T14:58:40.310Z,16.30
2018-02-11T15:01:06.350Z,15.10
2018-02-11T15:03:32.365Z,19.00
2018-02-11T15:05:58.734Z,19.40
2018-02-11T15:08:24.848Z,19.57
2018-02-11T15:10:50.863Z,17.03
2018-02-11T15:13:16.925Z,21.43
2018-02-11T15:15:43.284Z,34.07
2018-02-11T15:18:09.343Z,31.10
2018-02-11T15:20:35.340Z,22.70
2018-02-11T15:23:01.742Z,18.77
2018-02-11T15:25:27.717Z,17.70
2018-02-11T15:27:53.672Z,18.10
2018-02-11T15:30:19.695Z,20.30
2018-02-11T15:32:46.557Z,19.93
2018-02-11T15:35:12.632Z,19.23
2018-02-11T15:37:38.641Z,24.97
2018-02-11T15:40:04.728Z,37.90
2018-02-11T15:42:30.732Z,18.63
2018-02-11T15:44:57.212Z,17.57
2018-02-11T15:47:30.101Z,75.50
2018-02-11T15:49:56.102Z,59.17
2018-02-11T15:52:22.124Z,15.87
2018-02-11T15:54:48.163Z,15.90
2018-02-11T15:57:14.170Z,16.50
2018-02-11T15:59:40.244Z,14.93
2018-02-11T16:02:06.649Z,14.93
2018-02-11T16:04:32.630Z,12.93
2018-02-11T16:06:58.630Z,12.90
2018-02-11T16:09:24.675Z,15.30
2018-02-11T16:11:50.689Z,14.63
2018-02-11T16:14:16.716Z,17.80
2018-02-11T16:16:42.844Z,16.57
2018-02-11T16:19:09.529Z,19.73
2018-02-11T16:21:35.545Z,17.27
2018-02-11T16:24:01.595Z,15.70
2018-02-11T16:26:27.836Z,16.27
2018-02-11T16:28:53.811Z,15.83
2018-02-11T16:31:19.829Z,14.23
2018-02-11T16:33:45.817Z,18.13
2018-02-11T16:36:11.860Z,25.63
2018-02-11T16:38:37.837Z,26.80
2018-02-11T16:41:04.182Z,12.57
2018-02-11T16:43:30.292Z,26.80
2018-02-11T16:45:56.305Z,32.07
2018-02-11T16:48:22.287Z,21.70
2018-02-11T16:50:48.328Z,24.23
2018-02-11T16:53:14.396Z,66.97
2018-02-11T16:55:40.415Z,27.37
2018-02-11T16:58:06.469Z,21.37
2018-02-11T17:00:32.625Z,12.07
2018-02-11T17:02:59.025Z,15.20
2018-02-11T17:05:25.404Z,13.27
2018-02-11T17:07:51.393Z,11.17
2018-02-11T17:10:17.470Z,14.80
2018-02-11T17:12:43.441Z,10.43
2018-02-11T17:15:09.460Z,14.20
2018-02-11T17:17:35.517Z,12.93
2018-02-11T17:20:02.187Z,10.73
2018-02-11T17:22:28.181Z,12.17
2018-02-11T17:24:54.184Z,25.90
2018-02-11T17:27:20.236Z,23.53
2018-02-11T17:29:46.207Z,34.57
2018-02-11T17:32:12.202Z,18.10
2018-02-11T17:34:38.273Z,14.00
2018-02-11T17:37:04.250Z,13.50
2018-02-11T17:39:30.717Z,13.67
2018-02-11T17:41:56.789Z,14.30
2018-02-11T17:44:22.792Z,12.70
2018-02-11T17:46:48.794Z,12.53
2018-02-11T17:49:14.821Z,13.73
2018-02-11T17:51:40.921Z,15.97
2018-02-11T17:54:06.960Z,16.53
2018-02-11T17:56:32.986Z,11.70
2018-02-11T17:58:59.081Z,14.70
2018-02-11T18:01:25.223Z,17.60
2018-02-11T18:03:51.256Z,13.33
2018-02-11T18:06:17.277Z,12.40
2018-02-11T18:08:43.639Z,15.20
2018-02-11T18:11:09.630Z,11.90
2018-02-11T18:13:35.689Z,12.20
2018-02-11T18:16:01.676Z,12.00
2018-02-11T18:18:27.698Z,11.90
2018-02-11T18:20:53.728Z,12.17
2018-02-11T18:23:19.748Z,11.83
2018-02-11T18:25:46.073Z,14.60
2018-02-11T18:28:12.088Z,12.63
2018-02-11T18:30:38.076Z,16.93
2018-02-11T18:33:04.117Z,12.77
2018-02-11T18:35:30.152Z,15.17
2018-02-11T18:37:56.212Z,21.87
2018-02-11T18:40:22.226Z,25.60
2018-02-11T18:42:48.717Z,16.87
2018-02-11T18:45:14.772Z,11.53
2018-02-11T18:47:40.906Z,39.87
2018-02-11T18:50:06.925Z,49.17
2018-02-11T18:52:32.933Z,51.30
2018-02-11T18:54:59.079Z,88.40
2018-02-11T18:57:25.101Z,32.70
2018-02-11T18:59:51.489Z,26.47
2018-02-11T19:02:17.505Z,21.93
2018-02-11T19:04:43.516Z,12.50
2018-02-11T19:07:09.566Z,10.30
2018-02-11T19:09:35.658Z,17.07
2018-02-11T19:12:01.665Z,18.87
2018-02-11T19:14:27.657Z,18.57
2018-02-11T19:16:53.969Z,21.40
2018-02-11T19:19:20.044Z,18.47
2018-02-11T19:21:46.052Z,14.90
2018-02-11T19:24:12.092Z,16.40
2018-02-11T19:26:38.159Z,10.97
2018-02-11T19:29:04.153Z,15.10
2018-02-11T19:31:30.180Z,11.03
2018-02-11T19:33:56.586Z,14.30
2018-02-11T19:36:22.588Z,17.07
2018-02-11T19:38:48.845Z,12.10
2018-02-11T19:41:14.862Z,11.13
2018-02-11T19:43:40.920Z,10.10
2018-02-11T19:46:07.021Z,10.50
2018-02-11T19:48:33.072Z,10.83
2018-02-11T19:50:59.475Z,9.63
2018-02-11T19:53:25.497Z,10.67
2018-02-11T19:55:51.593Z,11.10
2018-02-11T19:58:17.602Z,10.00
2018-02-11T20:00:43.602Z,12.67
2018-02-11T20:03:09.628Z,11.60
2018-02-11T20:05:35.668Z,9.20
2018-02-11T20:08:02.054Z,13.60
2018-02-11T20:10:28.052Z,12.70
2018-02-11T20:12:54.044Z,10.03
2018-02-11T20:15:20.154Z,10.40
2018-02-11T20:17:46.173Z,10.23
2018-02-11T20:20:12.315Z,10.57
2018-02-11T20:22:38.351Z,12.00
2018-02-11T20:25:04.406Z,10.23
2018-02-11T20:27:30.451Z,11.17
2018-02-11T20:29:56.470Z,12.10
2018-02-11T20:32:22.929Z,9.27
2018-02-11T20:34:48.933Z,10.50
2018-02-11T20:37:15.012Z,9.50
2018-02-11T20:39:41.056Z,13.80
2018-02-11T20:42:07.050Z,10.30
2018-02-11T20:44:33.472Z,10.67
2018-02-11T20:46:59.492Z,10.97
2018-02-11T20:49:25.476Z,11.23
2018-02-11T20:51:51.487Z,11.67
2018-02-11T20:54:17.482Z,11.13
2018-02-11T20:56:43.581Z,12.57
2018-02-11T20:59:09.613Z,10.50
2018-02-11T21:01:36.015Z,11.63
2018-02-11T21:04:02.036Z,9.20
2018-02-11T21:06:28.017Z,9.57
2018-02-11T21:08:54.057Z,10.57
2018-02-11T21:11:20.054Z,11.10
2018-02-11T21:13:46.389Z,10.80
2018-02-11T21:16:12.427Z,10.30
2018-02-11T21:18:38.451Z,10.13
2018-02-11T21:21:04.480Z,13.50
2018-02-11T21:23:30.492Z,10.47
2018-02-11T21:25:56.838Z,15.13
2018-02-11T21:28:22.808Z,12.27
2018-02-11T21:30:48.878Z,9.70
2018-02-11T21:33:14.925Z,12.43
2018-02-11T21:35:41.967Z,11.23
2018-02-11T21:38:07.983Z,10.17
2018-02-11T21:40:34.041Z,9.67
2018-02-11T21:43:01.144Z,8.77
2018-02-11T21:45:27.210Z,9.37
2018-02-11T21:47:53.199Z,12.00
2018-02-11T21:50:19.249Z,10.70
2018-02-11T21:52:45.259Z,10.53
2018-02-11T21:55:11.321Z,12.60
2018-02-11T21:57:37.402Z,10.33
2018-02-11T22:00:03.806Z,10.53
2018-02-11T22:02:29.832Z,9.87
2018-02-11T22:04:55.825Z,9.97
2018-02-11T22:07:21.864Z,7.90
2018-02-11T22:09:47.884Z,11.20
2018-02-11T22:12:13.931Z,11.30
2018-02-11T22:14:39.984Z,7.80
2018-02-11T22:17:06.289Z,9.10
2018-02-11T22:19:32.311Z,10.10
2018-02-11T22:21:58.272Z,8.57
2018-02-11T22:24:24.316Z,8.87
2018-02-11T22:26:50.350Z,7.93
2018-02-11T22:29:16.381Z,9.27
2018-02-11T22:31:42.369Z,10.30
2018-02-11T22:34:08.405Z,10.57
2018-02-11T22:36:34.421Z,9.10
2018-02-11T22:39:00.415Z,8.33
2018-02-11T22:41:26.871Z,9.07
2018-02-11T22:43:52.936Z,11.80
2018-02-11T22:46:18.945Z,11.97
2018-02-11T22:48:44.975Z,11.33
2018-02-11T22:51:10.999Z,17.07
2018-02-11T22:53:37.020Z,13.33
2018-02-11T22:56:03.112Z,10.80
2018-02-11T22:58:29.563Z,14.17
2018-02-11T23:00:55.577Z,12.70
2018-02-11T23:03:21.580Z,15.27
2018-02-11T23:05:47.591Z,12.83
2018-02-11T23:08:13.600Z,10.37
2018-02-11T23:10:39.615Z,15.10
2018-02-11T23:13:05.633Z,9.33
2018-02-11T23:15:32.026Z,12.07
2018-02-11T23:17:58.049Z,10.30
2018-02-11T23:20:24.072Z,11.50
2018-02-11T23:22:50.069Z,12.10
2018-02-11T23:25:16.046Z,11.07
2018-02-11T23:27:42.064Z,11.57
2018-02-11T23:30:08.072Z,10.63
2018-02-11T23:32:34.404Z,11.23
2018-02-11T23:35:00.395Z,11.67
2018-02-11T23:37:26.419Z,8.40
2018-02-11T23:39:52.452Z,9.63
2018-02-11T23:42:18.475Z,14.70
2018-02-11T23:44:44.547Z,8.97
2018-02-11T23:47:10.573Z,13.43
2018-02-11T23:49:36.569Z,14.70
2018-02-11T23:52:02.571Z,8.33
2018-02-11T23:54:28.963Z,11.37
2018-02-11T23:56:54.996Z,9.77
2018-02-11T23:59:21.055Z,10.37
